sensor_id;sensor_type;location;lat;lon;timestamp;temperature;humidity
52799;DHT22;38667;42.872;74.622;2023-02-04T00:01:10;5.20;75.10
52799;DHT22;38667;42.872;74.622;2023-02-04T00:03:36;5.20;75.00
52799;DHT22;38667;42.872;74.622;2023-02-04T00:06:02;5.30;74.80
52799;DHT22;38667;42.872;74.622;2023-02-04T00:08:28;5.20;74.90
52799;DHT22;38667;42.872;74.622;2023-02-04T00:10:55;5.20;74.50
52799;DHT22;38667;42.872;74.622;2023-02-04T00:13:22;5.10;74.90
52799;DHT22;38667;42.872;74.622;2023-02-04T00:15:49;5.10;74.90
52799;DHT22;38667;42.872;74.622;2023-02-04T00:18:15;5.00;74.50
52799;DHT22;38667;42.872;74.622;2023-02-04T00:20:41;4.90;74.80
52799;DHT22;38667;42.872;74.622;2023-02-04T00:23:08;4.80;75.10
52799;DHT22;38667;42.872;74.622;2023-02-04T00:25:34;4.70;76.60
52799;DHT22;38667;42.872;74.622;2023-02-04T00:28:00;4.60;76.20
52799;DHT22;38667;42.872;74.622;2023-02-04T00:30:28;4.60;76.10
52799;DHT22;38667;42.872;74.622;2023-02-04T00:32:55;4.60;76.50
52799;DHT22;38667;42.872;74.622;2023-02-04T00:35:21;4.50;75.90
52799;DHT22;38667;42.872;74.622;2023-02-04T00:37:48;4.50;76.30
52799;DHT22;38667;42.872;74.622;2023-02-04T00:40:14;4.40;76.90
52799;DHT22;38667;42.872;74.622;2023-02-04T00:42:41;4.30;77.60
52799;DHT22;38667;42.872;74.622;2023-02-04T00:45:08;4.30;77.60
52799;DHT22;38667;42.872;74.622;2023-02-04T00:47:36;4.30;78.10
52799;DHT22;38667;42.872;74.622;2023-02-04T00:50:02;4.20;78.70
52799;DHT22;38667;42.872;74.622;2023-02-04T00:52:29;4.30;79.00
52799;DHT22;38667;42.872;74.622;2023-02-04T00:54:55;4.30;78.90
52799;DHT22;38667;42.872;74.622;2023-02-04T00:57:21;4.20;79.10
52799;DHT22;38667;42.872;74.622;2023-02-04T00:59:48;4.20;79.50
52799;DHT22;38667;42.872;74.622;2023-02-04T01:02:14;4.20;79.40
52799;DHT22;38667;42.872;74.622;2023-02-04T01:04:42;4.20;79.30
52799;DHT22;38667;42.872;74.622;2023-02-04T01:07:08;4.20;79.80
52799;DHT22;38667;42.872;74.622;2023-02-04T01:09:34;4.20;80.10
52799;DHT22;38667;42.872;74.622;2023-02-04T01:12:01;4.20;80.20
52799;DHT22;38667;42.872;74.622;2023-02-04T01:14:27;4.30;80.50
52799;DHT22;38667;42.872;74.622;2023-02-04T01:16:53;4.20;80.60
52799;DHT22;38667;42.872;74.622;2023-02-04T01:19:20;4.30;80.80
52799;DHT22;38667;42.872;74.622;2023-02-04T01:21:48;4.30;80.70
52799;DHT22;38667;42.872;74.622;2023-02-04T01:24:14;4.30;80.80
52799;DHT22;38667;42.872;74.622;2023-02-04T01:26:40;4.40;80.70
52799;DHT22;38667;42.872;74.622;2023-02-04T01:29:06;4.40;80.90
52799;DHT22;38667;42.872;74.622;2023-02-04T01:31:33;4.40;81.10
52799;DHT22;38667;42.872;74.622;2023-02-04T01:33:59;4.40;81.00
52799;DHT22;38667;42.872;74.622;2023-02-04T01:36:26;4.50;81.40
52799;DHT22;38667;42.872;74.622;2023-02-04T01:38:54;4.50;81.40
52799;DHT22;38667;42.872;74.622;2023-02-04T01:41:20;4.50;82.10
52799;DHT22;38667;42.872;74.622;2023-02-04T01:43:47;4.50;82.50
52799;DHT22;38667;42.872;74.622;2023-02-04T01:46:14;4.40;82.60
52799;DHT22;38667;42.872;74.622;2023-02-04T01:48:42;4.40;83.20
52799;DHT22;38667;42.872;74.622;2023-02-04T01:51:10;4.40;83.60
52799;DHT22;38667;42.872;74.622;2023-02-04T01:53:37;4.40;84.00
52799;DHT22;38667;42.872;74.622;2023-02-04T01:56:14;4.40;84.30
52799;DHT22;38667;42.872;74.622;2023-02-04T01:58:41;4.40;84.70
52799;DHT22;38667;42.872;74.622;2023-02-04T02:01:10;4.40;85.20
52799;DHT22;38667;42.872;74.622;2023-02-04T02:03:38;4.40;85.70
52799;DHT22;38667;42.872;74.622;2023-02-04T02:06:06;4.40;86.20
52799;DHT22;38667;42.872;74.622;2023-02-04T02:08:34;4.40;86.30
52799;DHT22;38667;42.872;74.622;2023-02-04T02:11:01;4.50;86.70
52799;DHT22;38667;42.872;74.622;2023-02-04T02:13:29;4.50;86.50
52799;DHT22;38667;42.872;74.622;2023-02-04T02:15:55;4.40;86.40
52799;DHT22;38667;42.872;74.622;2023-02-04T02:18:22;4.40;86.60
52799;DHT22;38667;42.872;74.622;2023-02-04T02:20:48;4.40;86.90
52799;DHT22;38667;42.872;74.622;2023-02-04T02:23:20;4.40;87.00
52799;DHT22;38667;42.872;74.622;2023-02-04T02:25:49;4.40;87.10
52799;DHT22;38667;42.872;74.622;2023-02-04T02:28:17;4.40;87.60
52799;DHT22;38667;42.872;74.622;2023-02-04T02:30:46;4.40;87.70
52799;DHT22;38667;42.872;74.622;2023-02-04T02:33:13;4.40;88.10
52799;DHT22;38667;42.872;74.622;2023-02-04T02:35:40;4.40;88.50
52799;DHT22;38667;42.872;74.622;2023-02-04T02:38:06;4.40;89.00
52799;DHT22;38667;42.872;74.622;2023-02-04T02:40:32;4.30;90.00
52799;DHT22;38667;42.872;74.622;2023-02-04T02:43:00;4.30;90.60
52799;DHT22;38667;42.872;74.622;2023-02-04T02:45:29;4.40;90.70
52799;DHT22;38667;42.872;74.622;2023-02-04T02:47:57;4.30;91.60
52799;DHT22;38667;42.872;74.622;2023-02-04T02:50:26;4.30;92.70
52799;DHT22;38667;42.872;74.622;2023-02-04T02:52:54;4.30;93.90
52799;DHT22;38667;42.872;74.622;2023-02-04T02:55:23;4.20;94.40
52799;DHT22;38667;42.872;74.622;2023-02-04T02:57:51;4.20;95.60
52799;DHT22;38667;42.872;74.622;2023-02-04T03:00:21;4.20;97.40
52799;DHT22;38667;42.872;74.622;2023-02-04T03:02:53;4.20;97.50
52799;DHT22;38667;42.872;74.622;2023-02-04T03:05:19;4.20;98.60
52799;DHT22;38667;42.872;74.622;2023-02-04T03:07:46;4.10;99.50
52799;DHT22;38667;42.872;74.622;2023-02-04T03:10:12;4.20;99.90
52799;DHT22;38667;42.872;74.622;2023-02-04T03:12:39;4.20;99.90
52799;DHT22;38667;42.872;74.622;2023-02-04T03:15:06;4.10;99.90
52799;DHT22;38667;42.872;74.622;2023-02-04T03:17:34;4.10;99.90
52799;DHT22;38667;42.872;74.622;2023-02-04T03:20:00;4.10;99.90
52799;DHT22;38667;42.872;74.622;2023-02-04T03:22:27;4.10;99.90
52799;DHT22;38667;42.872;74.622;2023-02-04T03:24:53;4.10;99.90
52799;DHT22;38667;42.872;74.622;2023-02-04T03:27:20;4.10;99.90
52799;DHT22;38667;42.872;74.622;2023-02-04T03:29:46;4.20;99.90
52799;DHT22;38667;42.872;74.622;2023-02-04T03:32:13;4.20;99.90
52799;DHT22;38667;42.872;74.622;2023-02-04T03:34:40;4.10;99.90
52799;DHT22;38667;42.872;74.622;2023-02-04T03:37:07;4.10;99.90
52799;DHT22;38667;42.872;74.622;2023-02-04T03:39:33;4.20;99.90
52799;DHT22;38667;42.872;74.622;2023-02-04T03:42:00;4.10;99.90
52799;DHT22;38667;42.872;74.622;2023-02-04T03:44:26;4.20;99.90
52799;DHT22;38667;42.872;74.622;2023-02-04T03:46:52;4.20;99.90
52799;DHT22;38667;42.872;74.622;2023-02-04T03:49:19;4.20;99.90
52799;DHT22;38667;42.872;74.622;2023-02-04T03:51:47;4.20;99.90
52799;DHT22;38667;42.872;74.622;2023-02-04T03:54:13;4.20;99.90
52799;DHT22;38667;42.872;74.622;2023-02-04T03:56:39;4.20;99.90
52799;DHT22;38667;42.872;74.622;2023-02-04T03:59:06;4.20;99.90
52799;DHT22;38667;42.872;74.622;2023-02-04T04:01:32;4.20;99.90
52799;DHT22;38667;42.872;74.622;2023-02-04T04:03:58;4.20;99.90
52799;DHT22;38667;42.872;74.622;2023-02-04T04:06:25;4.20;99.90
52799;DHT22;38667;42.872;74.622;2023-02-04T04:08:53;4.20;99.90
52799;DHT22;38667;42.872;74.622;2023-02-04T04:11:19;4.30;99.90
52799;DHT22;38667;42.872;74.622;2023-02-04T04:13:45;4.20;99.90
52799;DHT22;38667;42.872;74.622;2023-02-04T04:16:12;4.20;99.90
52799;DHT22;38667;42.872;74.622;2023-02-04T04:18:38;4.30;99.90
52799;DHT22;38667;42.872;74.622;2023-02-04T04:21:04;4.30;99.90
52799;DHT22;38667;42.872;74.622;2023-02-04T04:23:31;4.40;99.90
52799;DHT22;38667;42.872;74.622;2023-02-04T04:25:59;4.30;99.90
52799;DHT22;38667;42.872;74.622;2023-02-04T04:28:25;4.30;99.90
52799;DHT22;38667;42.872;74.622;2023-02-04T04:30:51;4.40;99.90
52799;DHT22;38667;42.872;74.622;2023-02-04T04:33:18;4.40;99.90
52799;DHT22;38667;42.872;74.622;2023-02-04T04:35:44;4.50;99.90
52799;DHT22;38667;42.872;74.622;2023-02-04T04:38:10;4.50;99.90
52799;DHT22;38667;42.872;74.622;2023-02-04T04:40:37;4.60;99.90
52799;DHT22;38667;42.872;74.622;2023-02-04T04:43:04;4.60;99.90
52799;DHT22;38667;42.872;74.622;2023-02-04T04:45:31;4.60;99.90
52799;DHT22;38667;42.872;74.622;2023-02-04T04:47:57;4.60;99.90
52799;DHT22;38667;42.872;74.622;2023-02-04T04:50:23;4.60;99.90
52799;DHT22;38667;42.872;74.622;2023-02-04T04:52:50;4.60;99.80
52799;DHT22;38667;42.872;74.622;2023-02-04T04:55:16;4.60;99.90
52799;DHT22;38667;42.872;74.622;2023-02-04T04:57:43;4.60;98.90
52799;DHT22;38667;42.872;74.622;2023-02-04T05:00:15;4.60;98.30
52799;DHT22;38667;42.872;74.622;2023-02-04T05:02:42;4.60;98.60
52799;DHT22;38667;42.872;74.622;2023-02-04T05:05:08;4.60;98.60
52799;DHT22;38667;42.872;74.622;2023-02-04T05:07:34;4.70;98.10
52799;DHT22;38667;42.872;74.622;2023-02-04T05:10:01;4.60;98.10
52799;DHT22;38667;42.872;74.622;2023-02-04T05:12:27;4.70;98.00
52799;DHT22;38667;42.872;74.622;2023-02-04T05:14:53;4.80;97.90
52799;DHT22;38667;42.872;74.622;2023-02-04T05:17:21;4.90;96.70
52799;DHT22;38667;42.872;74.622;2023-02-04T05:19:48;4.90;95.70
52799;DHT22;38667;42.872;74.622;2023-02-04T05:22:14;4.90;95.70
52799;DHT22;38667;42.872;74.622;2023-02-04T05:24:40;4.90;95.40
52799;DHT22;38667;42.872;74.622;2023-02-04T05:27:06;4.80;95.40
52799;DHT22;38667;42.872;74.622;2023-02-04T05:29:33;4.90;95.70
52799;DHT22;38667;42.872;74.622;2023-02-04T05:31:59;5.00;95.70
52799;DHT22;38667;42.872;74.622;2023-02-04T05:34:27;5.00;94.80
52799;DHT22;38667;42.872;74.622;2023-02-04T05:36:53;5.10;95.40
52799;DHT22;38667;42.872;74.622;2023-02-04T05:39:20;5.20;94.70
52799;DHT22;38667;42.872;74.622;2023-02-04T05:41:46;5.30;94.30
52799;DHT22;38667;42.872;74.622;2023-02-04T05:44:12;5.20;93.80
52799;DHT22;38667;42.872;74.622;2023-02-04T05:46:39;5.30;94.10
52799;DHT22;38667;42.872;74.622;2023-02-04T05:49:05;5.30;94.30
52799;DHT22;38667;42.872;74.622;2023-02-04T05:51:33;5.20;93.40
52799;DHT22;38667;42.872;74.622;2023-02-04T05:53:59;5.10;94.30
52799;DHT22;38667;42.872;74.622;2023-02-04T05:56:25;5.10;95.50
52799;DHT22;38667;42.872;74.622;2023-02-04T05:58:52;5.10;95.20
52799;DHT22;38667;42.872;74.622;2023-02-04T06:01:18;5.00;94.20
52799;DHT22;38667;42.872;74.622;2023-02-04T06:03:44;5.00;93.90
52799;DHT22;38667;42.872;74.622;2023-02-04T06:06:11;5.10;94.30
52799;DHT22;38667;42.872;74.622;2023-02-04T06:08:39;5.00;95.30
52799;DHT22;38667;42.872;74.622;2023-02-04T06:11:05;4.80;96.20
52799;DHT22;38667;42.872;74.622;2023-02-04T06:13:31;4.80;97.70
52799;DHT22;38667;42.872;74.622;2023-02-04T06:15:58;4.60;98.00
52799;DHT22;38667;42.872;74.622;2023-02-04T06:18:24;4.50;98.90
52799;DHT22;38667;42.872;74.622;2023-02-04T06:20:50;4.50;99.50
52799;DHT22;38667;42.872;74.622;2023-02-04T06:23:17;4.40;99.90
52799;DHT22;38667;42.872;74.622;2023-02-04T06:25:44;4.40;99.90
52799;DHT22;38667;42.872;74.622;2023-02-04T06:28:11;4.50;99.90
52799;DHT22;38667;42.872;74.622;2023-02-04T06:30:37;4.50;99.90
52799;DHT22;38667;42.872;74.622;2023-02-04T06:33:03;4.50;99.90
52799;DHT22;38667;42.872;74.622;2023-02-04T06:35:29;4.50;99.90
52799;DHT22;38667;42.872;74.622;2023-02-04T06:37:56;4.60;99.90
52799;DHT22;38667;42.872;74.622;2023-02-04T06:40:22;4.60;99.90
52799;DHT22;38667;42.872;74.622;2023-02-04T06:42:50;4.80;99.90
52799;DHT22;38667;42.872;74.622;2023-02-04T06:45:17;4.90;99.90
52799;DHT22;38667;42.872;74.622;2023-02-04T06:47:43;5.00;99.90
52799;DHT22;38667;42.872;74.622;2023-02-04T06:50:10;5.10;99.90
52799;DHT22;38667;42.872;74.622;2023-02-04T06:52:36;5.10;99.90
52799;DHT22;38667;42.872;74.622;2023-02-04T06:55:02;5.20;99.40
52799;DHT22;38667;42.872;74.622;2023-02-04T06:57:29;5.20;99.00
52799;DHT22;38667;42.872;74.622;2023-02-04T06:59:57;5.20;99.40
52799;DHT22;38667;42.872;74.622;2023-02-04T07:02:23;5.30;99.60
52799;DHT22;38667;42.872;74.622;2023-02-04T07:04:49;5.30;99.20
52799;DHT22;38667;42.872;74.622;2023-02-04T07:07:15;5.30;99.30
52799;DHT22;38667;42.872;74.622;2023-02-04T07:09:42;5.30;99.00
52799;DHT22;38667;42.872;74.622;2023-02-04T07:12:08;5.30;97.50
52799;DHT22;38667;42.872;74.622;2023-02-04T07:14:34;5.30;97.50
52799;DHT22;38667;42.872;74.622;2023-02-04T07:17:02;5.40;98.40
52799;DHT22;38667;42.872;74.622;2023-02-04T07:19:29;5.40;97.80
52799;DHT22;38667;42.872;74.622;2023-02-04T07:21:55;5.40;97.40
52799;DHT22;38667;42.872;74.622;2023-02-04T07:24:22;5.50;97.50
52799;DHT22;38667;42.872;74.622;2023-02-04T07:26:48;5.50;96.80
52799;DHT22;38667;42.872;74.622;2023-02-04T07:29:14;5.50;97.40
52799;DHT22;38667;42.872;74.622;2023-02-04T07:31:41;5.60;95.10
52799;DHT22;38667;42.872;74.622;2023-02-04T07:34:09;5.70;95.40
52799;DHT22;38667;42.872;74.622;2023-02-04T07:36:35;5.60;94.00
52799;DHT22;38667;42.872;74.622;2023-02-04T07:39:01;5.50;93.80
52799;DHT22;38667;42.872;74.622;2023-02-04T07:41:28;5.50;94.30
52799;DHT22;38667;42.872;74.622;2023-02-04T07:43:54;5.40;94.80
52799;DHT22;38667;42.872;74.622;2023-02-04T07:46:20;5.40;94.10
52799;DHT22;38667;42.872;74.622;2023-02-04T07:48:47;5.50;94.10
52799;DHT22;38667;42.872;74.622;2023-02-04T07:51:15;5.50;93.80
52799;DHT22;38667;42.872;74.622;2023-02-04T07:53:42;5.50;93.70
52799;DHT22;38667;42.872;74.622;2023-02-04T07:56:08;5.50;93.70
52799;DHT22;38667;42.872;74.622;2023-02-04T07:58:34;5.50;93.90
52799;DHT22;38667;42.872;74.622;2023-02-04T08:01:01;5.50;92.80
52799;DHT22;38667;42.872;74.622;2023-02-04T08:03:27;5.50;92.60
52799;DHT22;38667;42.872;74.622;2023-02-04T08:05:53;5.60;91.60
52799;DHT22;38667;42.872;74.622;2023-02-04T08:08:21;5.60;92.80
52799;DHT22;38667;42.872;74.622;2023-02-04T08:10:48;5.70;91.20
52799;DHT22;38667;42.872;74.622;2023-02-04T08:13:14;5.80;91.50
52799;DHT22;38667;42.872;74.622;2023-02-04T08:15:40;5.90;91.60
52799;DHT22;38667;42.872;74.622;2023-02-04T08:18:07;5.90;90.50
52799;DHT22;38667;42.872;74.622;2023-02-04T08:20:33;5.90;89.90
52799;DHT22;38667;42.872;74.622;2023-02-04T08:22:59;5.90;90.00
52799;DHT22;38667;42.872;74.622;2023-02-04T08:25:27;5.90;89.90
52799;DHT22;38667;42.872;74.622;2023-02-04T08:27:53;6.00;89.90
52799;DHT22;38667;42.872;74.622;2023-02-04T08:30:20;6.10;86.40
52799;DHT22;38667;42.872;74.622;2023-02-04T08:32:46;6.20;85.30
52799;DHT22;38667;42.872;74.622;2023-02-04T08:35:12;6.20;84.50
52799;DHT22;38667;42.872;74.622;2023-02-04T08:37:39;6.20;85.80
52799;DHT22;38667;42.872;74.622;2023-02-04T08:40:06;6.40;84.80
52799;DHT22;38667;42.872;74.622;2023-02-04T08:42:34;6.50;83.70
52799;DHT22;38667;42.872;74.622;2023-02-04T08:45:00;6.40;83.40
52799;DHT22;38667;42.872;74.622;2023-02-04T08:47:26;6.30;84.50
52799;DHT22;38667;42.872;74.622;2023-02-04T08:49:52;6.30;87.20
52799;DHT22;38667;42.872;74.622;2023-02-04T08:52:19;6.20;88.10
52799;DHT22;38667;42.872;74.622;2023-02-04T08:54:45;6.20;87.30
52799;DHT22;38667;42.872;74.622;2023-02-04T08:57:11;6.20;87.90
52799;DHT22;38667;42.872;74.622;2023-02-04T08:59:39;6.30;86.80
52799;DHT22;38667;42.872;74.622;2023-02-04T09:02:06;6.20;87.60
52799;DHT22;38667;42.872;74.622;2023-02-04T09:04:32;6.20;88.20
52799;DHT22;38667;42.872;74.622;2023-02-04T09:07:00;6.10;87.50
52799;DHT22;38667;42.872;74.622;2023-02-04T09:09:26;6.00;87.80
52799;DHT22;38667;42.872;74.622;2023-02-04T09:11:52;6.00;87.60
52799;DHT22;38667;42.872;74.622;2023-02-04T09:14:19;6.10;88.20
52799;DHT22;38667;42.872;74.622;2023-02-04T09:16:46;6.20;87.30
52799;DHT22;38667;42.872;74.622;2023-02-04T09:19:13;6.40;87.30
52799;DHT22;38667;42.872;74.622;2023-02-04T09:21:39;6.50;86.50
52799;DHT22;38667;42.872;74.622;2023-02-04T09:24:06;6.60;87.10
52799;DHT22;38667;42.872;74.622;2023-02-04T09:26:32;6.80;84.60
52799;DHT22;38667;42.872;74.622;2023-02-04T09:28:58;6.70;84.60
52799;DHT22;38667;42.872;74.622;2023-02-04T09:31:24;6.80;85.70
52799;DHT22;38667;42.872;74.622;2023-02-04T09:33:52;6.90;83.90
52799;DHT22;38667;42.872;74.622;2023-02-04T09:36:19;7.00;83.10
52799;DHT22;38667;42.872;74.622;2023-02-04T09:38:45;7.10;84.40
52799;DHT22;38667;42.872;74.622;2023-02-04T09:41:12;7.10;84.20
52799;DHT22;38667;42.872;74.622;2023-02-04T09:43:41;7.00;83.50
52799;DHT22;38667;42.872;74.622;2023-02-04T09:46:17;7.10;83.90
52799;DHT22;38667;42.872;74.622;2023-02-04T09:48:44;7.10;82.00
52799;DHT22;38667;42.872;74.622;2023-02-04T09:51:14;6.90;82.10
52799;DHT22;38667;42.872;74.622;2023-02-04T09:53:42;6.80;83.20
52799;DHT22;38667;42.872;74.622;2023-02-04T09:56:09;6.70;84.30
52799;DHT22;38667;42.872;74.622;2023-02-04T09:58:36;6.60;84.50
52799;DHT22;38667;42.872;74.622;2023-02-04T10:01:10;6.70;85.60
52799;DHT22;38667;42.872;74.622;2023-02-04T10:03:39;6.60;85.70
52799;DHT22;38667;42.872;74.622;2023-02-04T10:06:08;6.60;86.00
52799;DHT22;38667;42.872;74.622;2023-02-04T10:08:35;6.60;85.00
52799;DHT22;38667;42.872;74.622;2023-02-04T10:11:02;6.60;85.30
52799;DHT22;38667;42.872;74.622;2023-02-04T10:13:31;6.50;84.90
52799;DHT22;38667;42.872;74.622;2023-02-04T10:15:58;6.50;86.10
52799;DHT22;38667;42.872;74.622;2023-02-04T10:18:27;6.50;86.60
52799;DHT22;38667;42.872;74.622;2023-02-04T10:20:59;6.50;85.90
52799;DHT22;38667;42.872;74.622;2023-02-04T10:23:32;6.50;85.20
52799;DHT22;38667;42.872;74.622;2023-02-04T10:26:00;6.40;84.40
52799;DHT22;38667;42.872;74.622;2023-02-04T10:28:32;6.50;85.00
52799;DHT22;38667;42.872;74.622;2023-02-04T10:30:59;6.60;84.80
52799;DHT22;38667;42.872;74.622;2023-02-04T10:33:25;6.70;82.60
52799;DHT22;38667;42.872;74.622;2023-02-04T10:35:53;6.80;81.30
52799;DHT22;38667;42.872;74.622;2023-02-04T10:38:20;6.90;80.60
52799;DHT22;38667;42.872;74.622;2023-02-04T10:40:47;7.00;81.40
52799;DHT22;38667;42.872;74.622;2023-02-04T10:43:17;7.00;80.90
52799;DHT22;38667;42.872;74.622;2023-02-04T10:45:46;7.10;80.30
52799;DHT22;38667;42.872;74.622;2023-02-04T10:48:15;7.10;81.20
52799;DHT22;38667;42.872;74.622;2023-02-04T10:50:41;7.20;81.30
52799;DHT22;38667;42.872;74.622;2023-02-04T10:53:10;7.20;81.50
52799;DHT22;38667;42.872;74.622;2023-02-04T10:55:36;7.10;79.70
52799;DHT22;38667;42.872;74.622;2023-02-04T10:58:02;7.80;76.40
52799;DHT22;38667;42.872;74.622;2023-02-04T11:00:30;8.00;74.90
52799;DHT22;38667;42.872;74.622;2023-02-04T11:02:58;7.80;75.80
52799;DHT22;38667;42.872;74.622;2023-02-04T11:05:30;8.00;76.30
52799;DHT22;38667;42.872;74.622;2023-02-04T11:07:57;9.00;72.30
52799;DHT22;38667;42.872;74.622;2023-02-04T11:10:27;9.50;68.50
52799;DHT22;38667;42.872;74.622;2023-02-04T11:13:01;9.50;68.10
52799;DHT22;38667;42.872;74.622;2023-02-04T11:15:44;9.20;68.10
52799;DHT22;38667;42.872;74.622;2023-02-04T11:18:12;8.60;70.10
52799;DHT22;38667;42.872;74.622;2023-02-04T11:20:52;8.60;73.10
52799;DHT22;38667;42.872;74.622;2023-02-04T11:23:35;9.40;68.30
52799;DHT22;38667;42.872;74.622;2023-02-04T11:26:04;9.60;66.80
52799;DHT22;38667;42.872;74.622;2023-02-04T11:28:48;9.40;66.80
52799;DHT22;38667;42.872;74.622;2023-02-04T11:31:37;9.30;67.30
52799;DHT22;38667;42.872;74.622;2023-02-04T11:34:10;9.20;66.70
52799;DHT22;38667;42.872;74.622;2023-02-04T11:36:50;8.70;69.10
52799;DHT22;38667;42.872;74.622;2023-02-04T11:39:19;8.10;71.50
52799;DHT22;38667;42.872;74.622;2023-02-04T11:41:46;7.70;73.00
52799;DHT22;38667;42.872;74.622;2023-02-04T11:44:13;7.30;75.20
52799;DHT22;38667;42.872;74.622;2023-02-04T11:46:41;7.00;76.80
52799;DHT22;38667;42.872;74.622;2023-02-04T11:49:15;6.90;77.90
52799;DHT22;38667;42.872;74.622;2023-02-04T11:51:43;6.80;78.40
52799;DHT22;38667;42.872;74.622;2023-02-04T11:54:10;6.70;78.50
52799;DHT22;38667;42.872;74.622;2023-02-04T11:56:36;6.70;78.50
52799;DHT22;38667;42.872;74.622;2023-02-04T11:59:03;6.60;78.60
52799;DHT22;38667;42.872;74.622;2023-02-04T12:01:31;6.60;79.10
52799;DHT22;38667;42.872;74.622;2023-02-04T12:04:00;6.40;79.80
52799;DHT22;38667;42.872;74.622;2023-02-04T12:06:29;6.40;80.10
52799;DHT22;38667;42.872;74.622;2023-02-04T12:09:04;6.20;80.70
52799;DHT22;38667;42.872;74.622;2023-02-04T12:11:31;6.20;81.50
52799;DHT22;38667;42.872;74.622;2023-02-04T12:14:05;6.10;81.70
52799;DHT22;38667;42.872;74.622;2023-02-04T12:16:44;6.00;81.80
52799;DHT22;38667;42.872;74.622;2023-02-04T12:19:12;6.00;82.10
52799;DHT22;38667;42.872;74.622;2023-02-04T12:21:39;6.00;81.60
52799;DHT22;38667;42.872;74.622;2023-02-04T12:24:05;6.00;80.90
52799;DHT22;38667;42.872;74.622;2023-02-04T12:26:32;5.90;81.40
52799;DHT22;38667;42.872;74.622;2023-02-04T12:28:58;5.80;82.40
52799;DHT22;38667;42.872;74.622;2023-02-04T12:31:25;5.70;81.80
52799;DHT22;38667;42.872;74.622;2023-02-04T12:33:51;5.60;82.60
52799;DHT22;38667;42.872;74.622;2023-02-04T12:36:19;5.50;83.40
52799;DHT22;38667;42.872;74.622;2023-02-04T12:38:45;5.40;83.40
52799;DHT22;38667;42.872;74.622;2023-02-04T12:41:11;5.30;83.40
52799;DHT22;38667;42.872;74.622;2023-02-04T12:43:38;5.20;83.90
52799;DHT22;38667;42.872;74.622;2023-02-04T12:46:04;5.20;84.20
52799;DHT22;38667;42.872;74.622;2023-02-04T12:48:31;5.10;84.30
52799;DHT22;38667;42.872;74.622;2023-02-04T12:50:57;5.10;85.00
52799;DHT22;38667;42.872;74.622;2023-02-04T12:53:25;5.10;84.70
52799;DHT22;38667;42.872;74.622;2023-02-04T12:55:51;5.20;84.30
52799;DHT22;38667;42.872;74.622;2023-02-04T12:58:17;5.20;83.70
52799;DHT22;38667;42.872;74.622;2023-02-04T13:00:44;5.20;84.00
52799;DHT22;38667;42.872;74.622;2023-02-04T13:03:10;5.10;84.10
52799;DHT22;38667;42.872;74.622;2023-02-04T13:05:36;5.10;84.00
52799;DHT22;38667;42.872;74.622;2023-02-04T13:08:03;5.00;84.20
52799;DHT22;38667;42.872;74.622;2023-02-04T13:10:31;5.10;84.20
52799;DHT22;38667;42.872;74.622;2023-02-04T13:12:57;5.10;83.70
52799;DHT22;38667;42.872;74.622;2023-02-04T13:15:23;5.10;83.70
52799;DHT22;38667;42.872;74.622;2023-02-04T13:17:50;5.10;82.80
52799;DHT22;38667;42.872;74.622;2023-02-04T13:20:17;5.20;82.10
52799;DHT22;38667;42.872;74.622;2023-02-04T13:22:43;5.10;82.60
52799;DHT22;38667;42.872;74.622;2023-02-04T13:25:09;5.00;83.00
52799;DHT22;38667;42.872;74.622;2023-02-04T13:27:37;5.00;83.30
52799;DHT22;38667;42.872;74.622;2023-02-04T13:30:05;4.90;83.40
52799;DHT22;38667;42.872;74.622;2023-02-04T13:32:32;5.00;82.70
52799;DHT22;38667;42.872;74.622;2023-02-04T13:34:58;5.10;82.20
52799;DHT22;38667;42.872;74.622;2023-02-04T13:37:25;5.20;81.20
52799;DHT22;38667;42.872;74.622;2023-02-04T13:39:51;5.20;80.40
52799;DHT22;38667;42.872;74.622;2023-02-04T13:42:17;5.30;79.20
52799;DHT22;38667;42.872;74.622;2023-02-04T13:44:45;5.30;78.30
52799;DHT22;38667;42.872;74.622;2023-02-04T13:47:11;5.40;77.80
52799;DHT22;38667;42.872;74.622;2023-02-04T13:49:38;5.20;78.60
52799;DHT22;38667;42.872;74.622;2023-02-04T13:52:04;5.10;79.60
52799;DHT22;38667;42.872;74.622;2023-02-04T13:54:30;4.90;80.40
52799;DHT22;38667;42.872;74.622;2023-02-04T13:56:57;4.90;81.20
52799;DHT22;38667;42.872;74.622;2023-02-04T13:59:23;4.80;81.80
52799;DHT22;38667;42.872;74.622;2023-02-04T14:01:51;4.80;82.30
52799;DHT22;38667;42.872;74.622;2023-02-04T14:04:19;4.70;82.30
52799;DHT22;38667;42.872;74.622;2023-02-04T14:06:45;4.70;81.80
52799;DHT22;38667;42.872;74.622;2023-02-04T14:09:11;4.60;80.40
52799;DHT22;38667;42.872;74.622;2023-02-04T14:11:38;4.80;78.90
52799;DHT22;38667;42.872;74.622;2023-02-04T14:14:05;4.90;77.90
52799;DHT22;38667;42.872;74.622;2023-02-04T14:16:32;5.00;77.50
52799;DHT22;38667;42.872;74.622;2023-02-04T14:19:00;5.00;76.10
52799;DHT22;38667;42.872;74.622;2023-02-04T14:21:26;5.10;73.70
52799;DHT22;38667;42.872;74.622;2023-02-04T14:23:52;5.20;73.80
52799;DHT22;38667;42.872;74.622;2023-02-04T14:26:19;5.10;74.60
52799;DHT22;38667;42.872;74.622;2023-02-04T14:28:45;5.00;75.80
52799;DHT22;38667;42.872;74.622;2023-02-04T14:31:11;5.00;75.30
52799;DHT22;38667;42.872;74.622;2023-02-04T14:33:38;5.00;74.90
52799;DHT22;38667;42.872;74.622;2023-02-04T14:36:06;4.90;74.70
52799;DHT22;38667;42.872;74.622;2023-02-04T14:38:32;4.90;73.90
52799;DHT22;38667;42.872;74.622;2023-02-04T14:41:00;4.80;74.30
52799;DHT22;38667;42.872;74.622;2023-02-04T14:43:26;4.70;74.30
52799;DHT22;38667;42.872;74.622;2023-02-04T14:45:53;4.70;74.60
52799;DHT22;38667;42.872;74.622;2023-02-04T14:48:19;4.60;74.80
52799;DHT22;38667;42.872;74.622;2023-02-04T14:50:46;4.60;75.30
52799;DHT22;38667;42.872;74.622;2023-02-04T14:53:13;4.50;75.50
52799;DHT22;38667;42.872;74.622;2023-02-04T14:55:40;4.50;75.90
52799;DHT22;38667;42.872;74.622;2023-02-04T14:58:06;4.50;76.00
52799;DHT22;38667;42.872;74.622;2023-02-04T15:00:32;4.40;77.30
52799;DHT22;38667;42.872;74.622;2023-02-04T15:02:59;4.20;77.10
52799;DHT22;38667;42.872;74.622;2023-02-04T15:05:25;4.10;78.00
52799;DHT22;38667;42.872;74.622;2023-02-04T15:07:52;4.00;78.50
52799;DHT22;38667;42.872;74.622;2023-02-04T15:10:20;4.00;79.00
52799;DHT22;38667;42.872;74.622;2023-02-04T15:12:46;4.00;79.30
52799;DHT22;38667;42.872;74.622;2023-02-04T15:15:12;4.00;78.90
52799;DHT22;38667;42.872;74.622;2023-02-04T15:17:39;4.20;76.10
52799;DHT22;38667;42.872;74.622;2023-02-04T15:20:06;4.30;74.80
52799;DHT22;38667;42.872;74.622;2023-02-04T15:22:35;4.20;75.90
52799;DHT22;38667;42.872;74.622;2023-02-04T15:25:04;4.20;75.90
52799;DHT22;38667;42.872;74.622;2023-02-04T15:27:32;4.10;75.70
52799;DHT22;38667;42.872;74.622;2023-02-04T15:29:59;3.90;76.80